createdAt,value
2018-08-13T00:01:31.918Z,35.20
2018-08-13T00:04:00.802Z,34.50
2018-08-13T00:06:29.657Z,34.10
2018-08-13T00:08:58.522Z,35.70
2018-08-13T00:11:27.474Z,35.70
2018-08-13T00:13:56.286Z,36.40
2018-08-13T00:16:25.095Z,35.50
2018-08-13T00:18:54.665Z,34.80
2018-08-13T00:21:30.311Z,36.20
2018-08-13T00:23:59.159Z,35.20
2018-08-13T00:26:27.994Z,35.70
2018-08-13T00:28:56.796Z,35.70
2018-08-13T00:31:25.634Z,35.20
2018-08-13T00:33:54.471Z,36.80
2018-08-13T00:36:23.578Z,36.90
2018-08-13T00:38:52.714Z,37.10
2018-08-13T00:41:21.523Z,36.90
2018-08-13T00:43:50.354Z,37.40
2018-08-13T00:46:19.158Z,37.50
2018-08-13T00:48:47.997Z,37.20
2018-08-13T00:51:16.811Z,37.30
2018-08-13T00:53:45.675Z,37.40
2018-08-13T00:56:14.515Z,37.20
2018-08-13T00:58:43.322Z,37.30
2018-08-13T01:01:12.533Z,37.00
2018-08-13T01:03:41.330Z,37.70
2018-08-13T01:06:10.141Z,38.30
2018-08-13T01:08:38.969Z,38.10
2018-08-13T01:11:07.794Z,37.00
2018-08-13T01:13:36.599Z,38.50
2018-08-13T01:16:05.842Z,37.00
2018-08-13T01:18:34.662Z,38.70
2018-08-13T01:21:04.517Z,38.70
2018-08-13T01:23:33.878Z,38.80
2018-08-13T01:26:02.698Z,38.80
2018-08-13T01:28:31.514Z,39.00
2018-08-13T01:31:00.346Z,39.10
2018-08-13T01:33:29.216Z,39.10
2018-08-13T01:35:58.026Z,39.20
2018-08-13T01:38:26.885Z,39.20
2018-08-13T01:40:55.705Z,39.40
2018-08-13T01:43:24.608Z,38.80
2018-08-13T01:45:53.879Z,39.20
2018-08-13T01:50:51.407Z,38.90
2018-08-13T01:53:20.656Z,39.40
2018-08-13T01:58:18.845Z,39.60
2018-08-13T02:03:16.274Z,39.40
2018-08-13T02:08:13.888Z,39.80
2018-08-13T02:10:42.810Z,39.80
2018-08-13T02:13:11.633Z,38.90
2018-08-13T02:15:40.518Z,40.50
2018-08-13T02:18:09.515Z,40.00
2018-08-13T02:20:38.359Z,40.70
2018-08-13T02:23:07.516Z,40.70
2018-08-13T02:25:36.361Z,40.80
2018-08-13T02:28:05.181Z,39.30
2018-08-13T02:30:34.459Z,40.70
2018-08-13T02:33:03.271Z,40.90
2018-08-13T02:35:32.086Z,40.90
2018-08-13T02:38:00.939Z,40.90
2018-08-13T02:40:29.759Z,39.50
2018-08-13T02:42:58.590Z,39.50
2018-08-13T02:45:27.433Z,41.20
2018-08-13T02:47:56.214Z,39.80
2018-08-13T02:50:25.054Z,39.80
2018-08-13T02:52:54.274Z,39.90
2018-08-13T02:55:23.086Z,40.60
2018-08-13T02:57:51.888Z,40.20
2018-08-13T03:00:20.719Z,41.20
2018-08-13T03:02:49.643Z,40.30
2018-08-13T03:05:18.450Z,41.20
2018-08-13T03:07:47.272Z,41.30
2018-08-13T03:10:16.085Z,40.50
2018-08-13T03:12:44.920Z,41.40
2018-08-13T03:15:15.170Z,40.90
2018-08-13T03:17:43.990Z,41.60
2018-08-13T03:20:12.798Z,41.50
2018-08-13T03:22:41.839Z,41.40
2018-08-13T03:25:11.311Z,41.50
2018-08-13T03:27:40.126Z,41.50
2018-08-13T03:30:11.291Z,41.60
2018-08-13T03:32:40.402Z,40.50
2018-08-13T03:37:38.311Z,40.30
2018-08-13T03:40:11.896Z,41.70
2018-08-13T03:42:40.873Z,41.70
2018-08-13T03:45:12.144Z,41.10
2018-08-13T03:47:41.134Z,41.00
2018-08-13T03:50:11.687Z,41.10
2018-08-13T03:52:40.866Z,40.90
2018-08-13T03:55:11.607Z,41.30
2018-08-13T03:57:41.333Z,41.30
2018-08-13T04:00:14.397Z,41.70
2018-08-13T04:02:43.597Z,42.20
2018-08-13T04:05:13.776Z,42.30
2018-08-13T04:07:42.649Z,42.30
2018-08-13T04:10:13.135Z,41.60
2018-08-13T04:12:43.491Z,42.40
2018-08-13T04:15:13.694Z,41.80
2018-08-13T04:17:43.177Z,41.00
2018-08-13T04:20:13.832Z,42.50
2018-08-13T04:22:43.214Z,42.20
2018-08-13T04:25:12.354Z,42.80
2018-08-13T04:27:41.821Z,43.00
2018-08-13T04:30:15.539Z,43.00
2018-08-13T04:32:45.914Z,43.00
2018-08-13T04:35:14.755Z,42.40
2018-08-13T04:37:44.750Z,43.60
2018-08-13T04:40:14.791Z,43.10
2018-08-13T04:42:44.727Z,43.20
2018-08-13T04:45:13.598Z,42.50
2018-08-13T04:47:54.856Z,42.00
2018-08-13T04:50:23.660Z,43.40
2018-08-13T04:52:52.477Z,43.30
2018-08-13T04:55:21.744Z,42.90
2018-08-13T04:57:50.551Z,43.50
2018-08-13T05:00:19.427Z,42.70
2018-08-13T05:02:48.315Z,43.60
2018-08-13T05:05:17.105Z,42.30
2018-08-13T05:07:45.947Z,43.20
2018-08-13T05:10:15.389Z,42.20
2018-08-13T05:12:44.287Z,42.80
2018-08-13T05:15:13.129Z,42.20
2018-08-13T05:17:41.969Z,42.00
2018-08-13T05:20:10.837Z,42.20
2018-08-13T05:22:39.655Z,41.90
2018-08-13T05:25:10.110Z,42.20
2018-08-13T05:27:39.988Z,42.10
2018-08-13T05:37:39.454Z,41.70
2018-08-13T05:40:10.455Z,41.50
2018-08-13T05:42:40.019Z,42.60
2018-08-13T05:45:10.018Z,41.00
2018-08-13T05:47:39.201Z,40.50
2018-08-13T05:50:10.765Z,40.30
2018-08-13T05:52:39.590Z,40.70
2018-08-13T05:55:09.449Z,40.40
2018-08-13T05:57:38.309Z,39.70
2018-08-13T06:00:11.533Z,39.40
2018-08-13T06:02:41.685Z,39.90
2018-08-13T06:05:11.579Z,39.80
2018-08-13T06:07:41.094Z,39.70
2018-08-13T06:10:11.819Z,39.50
2018-08-13T06:12:41.105Z,38.80
2018-08-13T06:15:11.774Z,39.70
2018-08-13T06:17:40.610Z,39.20
2018-08-13T06:20:11.471Z,39.80
2018-08-13T06:22:41.507Z,38.70
2018-08-13T06:25:11.230Z,39.10
2018-08-13T06:27:40.379Z,39.10
2018-08-13T06:30:13.557Z,39.00
2018-08-13T06:32:42.890Z,38.30
2018-08-13T06:35:13.033Z,38.20
2018-08-13T06:37:42.669Z,38.20
2018-08-13T06:40:20.058Z,38.30
2018-08-13T06:42:48.914Z,38.30
2018-08-13T06:45:17.977Z,38.10
2018-08-13T06:47:46.863Z,38.60
2018-08-13T06:50:15.919Z,38.00
2018-08-13T06:52:44.825Z,38.50
2018-08-13T06:55:13.719Z,38.00
2018-08-13T06:57:42.579Z,38.00
2018-08-13T07:00:13.423Z,37.90
2018-08-13T07:02:42.363Z,38.40
2018-08-13T07:05:11.789Z,38.00
2018-08-13T07:07:41.188Z,37.70
2018-08-13T07:10:11.114Z,37.70
2018-08-13T07:12:42.039Z,37.60
2018-08-13T07:15:11.312Z,38.70
2018-08-13T07:17:43.017Z,37.80
2018-08-13T07:20:16.320Z,37.30
2018-08-13T07:22:45.231Z,37.80
2018-08-13T07:25:14.045Z,37.70
2018-08-13T07:27:43.208Z,37.20
2018-08-13T07:30:14.158Z,37.60
2018-08-13T07:32:43.602Z,37.40
2018-08-13T07:35:12.411Z,37.50
2018-08-13T07:37:44.313Z,37.30
2018-08-13T07:40:17.935Z,37.20
2018-08-13T07:42:47.623Z,37.10
2018-08-13T07:45:16.413Z,37.10
2018-08-13T07:47:45.240Z,36.80
2018-08-13T07:50:16.041Z,36.10
2018-08-13T07:52:44.937Z,36.60
2018-08-13T07:55:14.415Z,36.40
2018-08-13T07:57:43.233Z,36.20
2018-08-13T08:02:42.670Z,35.50
2018-08-13T08:05:11.506Z,36.00
2018-08-13T08:07:40.340Z,35.80
2018-08-13T08:10:12.279Z,35.70
2018-08-13T08:12:41.531Z,35.50
2018-08-13T08:15:20.588Z,35.20
2018-08-13T08:17:49.389Z,35.10
2018-08-13T08:20:18.177Z,34.90
2018-08-13T08:22:46.974Z,35.20
2018-08-13T08:25:18.899Z,35.40
2018-08-13T08:27:48.562Z,35.20
2018-08-13T08:30:17.371Z,35.70
2018-08-13T08:32:46.293Z,34.70
2018-08-13T08:35:16.847Z,34.80
2018-08-13T08:37:45.732Z,34.90
2018-08-13T08:40:17.551Z,34.80
2018-08-13T08:42:46.567Z,33.90
2018-08-13T08:45:26.286Z,34.10
2018-08-13T08:47:55.949Z,33.90
2018-08-13T08:50:24.897Z,33.80
2018-08-13T08:52:53.736Z,33.80
2018-08-13T08:55:22.670Z,33.70
2018-08-13T08:57:51.568Z,33.60
2018-08-13T09:00:23.898Z,33.50
2018-08-13T09:02:52.832Z,33.00
2018-08-13T09:05:21.659Z,32.60
2018-08-13T09:07:50.796Z,32.40
2018-08-13T09:10:19.613Z,32.30
2018-08-13T09:12:48.419Z,32.30
2018-08-13T09:15:17.935Z,32.50
2018-08-13T09:18:04.023Z,31.20
2018-08-13T09:20:49.966Z,31.70
2018-08-13T09:23:36.087Z,31.70
2018-08-13T09:26:22.494Z,30.90
2018-08-13T09:29:09.069Z,30.40
2018-08-13T09:32:27.469Z,30.40
2018-08-13T09:35:06.436Z,30.30
2018-08-13T09:37:35.326Z,29.80
2018-08-13T09:40:06.122Z,29.10
2018-08-13T09:42:34.954Z,29.20
2018-08-13T09:45:10.961Z,29.20
2018-08-13T09:47:40.042Z,29.10
2018-08-13T09:50:12.440Z,29.40
2018-08-13T09:52:41.641Z,29.40
2018-08-13T09:55:10.509Z,28.80
2018-08-13T09:57:39.425Z,28.80
2018-08-13T10:00:16.551Z,28.50
2018-08-13T10:02:47.178Z,28.10
2018-08-13T10:05:16.181Z,28.20
2018-08-13T10:07:45.421Z,28.40
2018-08-13T10:10:14.953Z,28.30
2018-08-13T10:12:44.539Z,28.10
2018-08-13T10:15:14.103Z,27.60
2018-08-13T10:17:42.975Z,27.50
2018-08-13T10:20:16.864Z,27.20
2018-08-13T10:22:46.253Z,27.40
2018-08-13T10:27:43.842Z,26.70
2018-08-13T10:30:14.921Z,26.90
2018-08-13T10:32:43.759Z,27.10
2018-08-13T10:35:12.597Z,26.80
2018-08-13T10:37:41.951Z,26.80
2018-08-13T10:40:14.399Z,26.70
2018-08-13T10:42:43.615Z,26.40
2018-08-13T10:45:12.445Z,27.00
2018-08-13T10:47:41.269Z,25.80
2018-08-13T10:50:12.456Z,26.10
2018-08-13T10:52:41.541Z,25.80
2018-08-13T10:55:12.027Z,26.50
2018-08-13T10:57:41.107Z,25.30
2018-08-13T11:00:15.757Z,25.10
2018-08-13T11:02:45.178Z,25.60
2018-08-13T11:05:14.897Z,25.40
2018-08-13T11:07:43.697Z,25.30
2018-08-13T11:10:13.893Z,25.10
2018-08-13T11:12:42.737Z,24.20
2018-08-13T11:15:14.679Z,24.30
2018-08-13T11:17:43.506Z,23.70
2018-08-13T11:20:12.382Z,23.60
2018-08-13T11:22:42.566Z,23.60
2018-08-13T11:25:13.386Z,23.40
2018-08-13T11:27:42.483Z,23.70
2018-08-13T11:30:15.607Z,23.30
2018-08-13T11:32:44.499Z,23.60
2018-08-13T11:35:14.643Z,23.20
2018-08-13T11:37:43.778Z,23.40
2018-08-13T11:40:14.932Z,23.60
2018-08-13T11:42:43.792Z,23.10
2018-08-13T11:45:12.629Z,23.30
2018-08-13T11:47:41.809Z,23.10
2018-08-13T11:50:17.292Z,23.30
2018-08-13T11:52:47.698Z,22.90
2018-08-13T11:55:17.199Z,22.90
2018-08-13T11:57:46.898Z,22.40
2018-08-13T12:00:15.801Z,22.20
2018-08-13T12:02:44.743Z,22.30
2018-08-13T12:05:15.014Z,22.00
2018-08-13T12:07:44.312Z,22.00
2018-08-13T12:10:13.823Z,22.40
2018-08-13T12:12:43.207Z,22.50
2018-08-13T12:15:13.551Z,22.30
2018-08-13T12:17:42.865Z,22.40
2018-08-13T12:20:18.897Z,22.40
2018-08-13T12:22:48.099Z,22.40
2018-08-13T12:25:25.936Z,22.50
2018-08-13T12:27:55.110Z,22.60
2018-08-13T12:30:24.281Z,23.10
2018-08-13T12:32:54.175Z,22.90
2018-08-13T12:35:23.050Z,22.60
2018-08-13T12:37:52.156Z,22.20
2018-08-13T12:40:21.481Z,22.30
2018-08-13T12:42:50.295Z,21.90
2018-08-13T12:45:19.371Z,22.10
2018-08-13T12:47:48.289Z,22.40
2018-08-13T12:50:19.019Z,22.20
2018-08-13T12:52:49.099Z,22.20
2018-08-13T12:55:17.982Z,21.30
2018-08-13T12:57:46.815Z,21.20
2018-08-13T13:00:18.076Z,21.30
2018-08-13T13:02:46.906Z,21.40
2018-08-13T13:05:16.779Z,21.60
2018-08-13T13:07:45.627Z,21.40
2018-08-13T13:10:15.788Z,21.30
2018-08-13T13:12:44.912Z,20.90
2018-08-13T13:15:15.982Z,21.20
2018-08-13T13:17:45.729Z,21.60
2018-08-13T13:20:20.146Z,21.30
2018-08-13T13:22:49.388Z,20.80
2018-08-13T13:25:18.648Z,20.50
2018-08-13T13:27:47.535Z,20.10
2018-08-13T13:30:17.326Z,19.90
2018-08-13T13:32:46.767Z,20.10
2018-08-13T13:35:16.987Z,19.90
2018-08-13T13:37:45.831Z,20.20
2018-08-13T13:40:16.533Z,20.60
2018-08-13T13:42:45.895Z,19.50
2018-08-13T13:47:44.199Z,20.20
2018-08-13T13:50:15.455Z,19.90
2018-08-13T13:52:44.535Z,19.40
2018-08-13T13:57:42.453Z,20.10
2018-08-13T14:00:18.535Z,20.00
2018-08-13T14:02:49.419Z,20.30
2018-08-13T14:05:18.310Z,19.60
2018-08-13T14:07:47.273Z,19.50
2018-08-13T14:10:22.146Z,19.30
2018-08-13T14:12:51.069Z,19.70
2018-08-13T14:15:22.144Z,20.10
2018-08-13T14:17:52.028Z,20.50
2018-08-13T14:20:20.939Z,19.90
2018-08-13T14:22:49.778Z,19.70
2018-08-13T14:25:18.610Z,20.00
2018-08-13T14:27:47.416Z,19.80
2018-08-13T14:30:22.915Z,19.80
2018-08-13T14:32:52.318Z,20.00
2018-08-13T14:35:22.378Z,20.10
2018-08-13T14:37:51.458Z,20.40
2018-08-13T14:40:20.381Z,20.80
2018-08-13T14:42:49.186Z,20.80
2018-08-13T14:45:18.850Z,20.90
2018-08-13T14:47:49.434Z,21.00
2018-08-13T14:50:18.250Z,20.90
2018-08-13T14:52:47.930Z,21.20
2018-08-13T14:55:19.689Z,21.30
2018-08-13T14:57:48.523Z,21.30
2018-08-13T15:00:20.621Z,21.30
2018-08-13T15:02:50.042Z,22.10
2018-08-13T15:05:19.229Z,22.40
2018-08-13T15:07:48.089Z,22.80
2018-08-13T15:10:22.852Z,23.00
2018-08-13T15:12:51.682Z,23.20
2018-08-13T15:15:20.501Z,23.40
2018-08-13T15:17:49.792Z,23.60
2018-08-13T15:20:25.914Z,23.80
2018-08-13T15:22:54.866Z,24.10
2018-08-13T15:25:23.767Z,24.40
2018-08-13T15:27:52.708Z,24.30
2018-08-13T15:30:22.357Z,24.80
2018-08-13T15:32:52.072Z,25.00
2018-08-13T15:35:21.514Z,25.20
2018-08-13T15:37:50.670Z,25.20
2018-08-13T15:40:19.761Z,25.60
2018-08-13T15:42:49.191Z,25.50
2018-08-13T15:45:19.877Z,26.10
2018-08-13T15:47:49.170Z,26.30
2018-08-13T15:50:19.191Z,26.50
2018-08-13T15:52:54.628Z,26.20
2018-08-13T15:55:23.453Z,26.90
2018-08-13T15:57:52.267Z,27.10
2018-08-13T16:00:23.713Z,27.00
2018-08-13T16:02:53.113Z,27.10
2018-08-13T16:05:22.322Z,27.10
2018-08-13T16:07:51.605Z,28.00
2018-08-13T16:10:21.235Z,28.20
2018-08-13T16:12:50.100Z,28.30
2018-08-13T16:15:18.922Z,29.20
2018-08-13T16:17:47.755Z,29.60
2018-08-13T16:20:18.851Z,29.90
2018-08-13T16:22:48.750Z,30.20
2018-08-13T16:25:18.137Z,30.50
2018-08-13T16:27:47.886Z,30.80
2018-08-13T16:30:22.100Z,29.80
2018-08-13T16:32:50.951Z,30.90
2018-08-13T16:35:21.453Z,31.80
2018-08-13T16:37:51.217Z,31.10
2018-08-13T16:40:20.391Z,32.40
2018-08-13T16:42:49.942Z,33.70
2018-08-13T16:45:20.326Z,32.90
2018-08-13T16:47:49.318Z,33.70
2018-08-13T16:50:29.143Z,32.90
2018-08-13T16:52:58.398Z,31.60
2018-08-13T16:55:28.731Z,33.80
2018-08-13T16:57:58.368Z,32.60
2018-08-13T17:00:29.558Z,35.30
2018-08-13T17:02:59.222Z,34.30
2018-08-13T17:05:29.697Z,32.70
2018-08-13T17:07:58.620Z,35.20
2018-08-13T17:10:29.160Z,34.50
2018-08-13T17:12:58.824Z,33.40
2018-08-13T17:17:59.807Z,34.50
2018-08-13T17:20:33.137Z,35.00
2018-08-13T17:23:01.983Z,35.20
2018-08-13T17:25:30.821Z,35.50
2018-08-13T17:27:59.679Z,33.60
2018-08-13T17:30:28.543Z,35.90
2018-08-13T17:33:00.014Z,36.50
2018-08-13T17:35:32.303Z,36.00
2018-08-13T17:38:02.748Z,35.50
2018-08-13T17:40:31.881Z,35.20
2018-08-13T17:43:00.888Z,36.20
2018-08-13T17:45:29.593Z,36.10
2018-08-13T17:47:58.423Z,35.80
2018-08-13T17:50:27.350Z,36.50
2018-08-13T17:52:56.195Z,36.50
2018-08-13T17:55:25.039Z,36.70
2018-08-13T17:57:54.215Z,36.60
2018-08-13T18:00:25.521Z,36.70
2018-08-13T18:02:54.378Z,36.90
2018-08-13T18:05:25.038Z,36.80
2018-08-13T18:07:54.505Z,36.70
2018-08-13T18:10:27.482Z,37.20
2018-08-13T18:12:58.333Z,38.10
2018-08-13T18:15:27.199Z,39.00
2018-08-13T18:17:56.311Z,38.30
2018-08-13T18:20:25.128Z,38.90
2018-08-13T18:22:53.954Z,39.00
2018-08-13T18:25:22.850Z,39.10
2018-08-13T18:27:52.983Z,38.10
2018-08-13T18:32:53.038Z,36.90
2018-08-13T18:35:21.871Z,37.10
2018-08-13T18:37:50.805Z,38.00
2018-08-13T18:40:26.847Z,38.60
2018-08-13T18:42:55.737Z,38.60
2018-08-13T18:45:24.555Z,36.90
2018-08-13T18:47:53.366Z,38.80
2018-08-13T18:50:23.009Z,39.10
2018-08-13T18:52:52.263Z,38.10
2018-08-13T18:55:23.403Z,39.40
2018-08-13T18:57:52.902Z,39.50
2018-08-13T19:00:27.297Z,39.60
2018-08-13T19:02:57.213Z,39.90
2018-08-13T19:05:26.021Z,38.00
2018-08-13T19:07:54.824Z,39.70
2018-08-13T19:10:23.749Z,39.20
2018-08-13T19:12:52.561Z,40.80
2018-08-13T19:15:28.140Z,38.60
2018-08-13T19:17:56.946Z,41.00
2018-08-13T19:20:25.790Z,40.90
2018-08-13T19:22:54.623Z,41.40
2018-08-13T19:25:25.762Z,41.40
2018-08-13T19:27:54.628Z,41.60
2018-08-13T19:30:24.258Z,41.70
2018-08-13T19:32:53.675Z,41.30
2018-08-13T19:35:22.528Z,41.80
2018-08-13T19:37:51.646Z,42.20
2018-08-13T19:40:22.972Z,41.70
2018-08-13T19:42:52.096Z,42.00
2018-08-13T19:45:21.672Z,42.60
2018-08-13T19:47:51.718Z,42.70
2018-08-13T19:50:20.541Z,42.70
2018-08-13T19:52:50.006Z,42.10
2018-08-13T19:55:19.819Z,41.40
2018-08-13T19:57:49.092Z,43.20
2018-08-13T20:00:25.365Z,43.40
2018-08-13T20:02:54.712Z,43.60
2018-08-13T20:07:54.183Z,43.20
2018-08-13T20:10:23.157Z,42.40
2018-08-13T20:12:52.148Z,43.50
2018-08-13T20:15:21.028Z,43.70
2018-08-13T20:17:50.752Z,44.30
2018-08-13T20:20:20.817Z,43.00
2018-08-13T20:22:50.236Z,44.80
2018-08-13T20:25:21.049Z,44.90
2018-08-13T20:27:50.710Z,43.60
2018-08-13T20:30:20.878Z,44.00
2018-08-13T20:32:51.286Z,45.20
2018-08-13T20:35:20.301Z,44.20
2018-08-13T20:37:49.699Z,44.70
2018-08-13T20:40:19.571Z,44.00
2018-08-13T20:42:49.837Z,45.60
2018-08-13T20:45:20.259Z,45.00
2018-08-13T20:47:49.282Z,44.70
2018-08-13T20:50:23.643Z,46.10
2018-08-13T20:52:53.615Z,44.80
2018-08-13T20:55:27.355Z,46.70
2018-08-13T20:57:57.205Z,45.10
2018-08-13T21:00:29.258Z,47.10
2018-08-13T21:02:58.581Z,45.70
2018-08-13T21:05:29.223Z,45.40
2018-08-13T21:07:58.413Z,47.60
2018-08-13T21:10:27.210Z,45.80
2018-08-13T21:12:56.665Z,45.80
2018-08-13T21:15:25.512Z,48.20
2018-08-13T21:17:54.422Z,48.40
2018-08-13T21:20:27.089Z,47.00
2018-08-13T21:22:56.083Z,48.70
2018-08-13T21:25:24.954Z,48.70
2018-08-13T21:27:56.608Z,48.80
2018-08-13T21:30:25.442Z,46.70
2018-08-13T21:32:54.870Z,48.60
2018-08-13T21:35:25.016Z,48.00
2018-08-13T21:37:53.840Z,49.20
2018-08-13T21:40:22.665Z,48.90
2018-08-13T21:42:52.238Z,47.80
2018-08-13T21:47:51.538Z,49.10
2018-08-13T21:50:22.356Z,49.50
2018-08-13T21:52:52.049Z,49.20
2018-08-13T21:55:21.106Z,49.40
2018-08-13T21:57:49.963Z,49.50
2018-08-13T22:00:27.040Z,49.70
2018-08-13T22:03:00.031Z,49.10
2018-08-13T22:05:29.699Z,49.50
2018-08-13T22:07:58.926Z,50.00
2018-08-13T22:10:28.740Z,50.50
2018-08-13T22:12:57.555Z,50.80
2018-08-13T22:15:27.531Z,48.50
2018-08-13T22:17:59.725Z,49.80
2018-08-13T22:20:29.549Z,50.80
2018-08-13T22:23:00.314Z,49.10
2018-08-13T22:25:33.784Z,49.10
2018-08-13T22:28:03.235Z,51.20
2018-08-13T22:30:33.171Z,51.40
2018-08-13T22:33:03.738Z,51.60
2018-08-13T22:35:33.131Z,51.00
2018-08-13T22:38:02.795Z,51.70
2018-08-13T22:40:31.621Z,51.80
2018-08-13T22:43:00.759Z,50.50
2018-08-13T22:45:30.293Z,51.00
2018-08-13T22:47:59.109Z,51.70
2018-08-13T22:50:28.512Z,52.00
2018-08-13T22:52:57.363Z,51.20
2018-08-13T22:55:26.469Z,51.40
2018-08-13T22:57:55.338Z,50.70
2018-08-13T23:00:25.411Z,52.30
2018-08-13T23:02:54.238Z,52.30
2018-08-13T23:05:25.238Z,51.60
2018-08-13T23:07:54.054Z,51.50
2018-08-13T23:10:24.843Z,51.70
2018-08-13T23:12:56.286Z,51.50
2018-08-13T23:15:25.516Z,51.90
2018-08-13T23:17:54.718Z,51.80
2018-08-13T23:20:27.192Z,51.20
2018-08-13T23:23:02.312Z,52.10
2018-08-13T23:25:32.450Z,52.70
2018-08-13T23:28:02.441Z,50.70
2018-08-13T23:30:31.874Z,52.10
2018-08-13T23:33:02.161Z,52.70
2018-08-13T23:35:32.305Z,52.80
2018-08-13T23:38:01.122Z,53.00
2018-08-13T23:40:30.232Z,52.60
2018-08-13T23:42:59.091Z,52.60
2018-08-13T23:45:32.476Z,52.70
2018-08-13T23:48:01.362Z,52.50
2018-08-13T23:50:31.946Z,52.60
2018-08-13T23:55:34.911Z,52.60
2018-08-13T23:58:05.782Z,52.10
